^^
nws-alerts.php - 1.15 - 19-Aug-2013 - NWS Public Alerts
Station Historical Data
 
Daily Summary for December 18, 2017 Units:  English    Metric   Both
« Previous Day
Next Day »
Daily Weekly Monthly Yearly Custom
  Current: High: Low: Average:
Temperature: 62.2 °F 66.0 °F 60.7 °F 62.6 °F
Dew Point: 61.6 °F 64.5 °F 59.8 °F 61.6 °F
Humidity: 98% 98% 95% 97%
Wind Speed: 0.0mph 0.0mph 0.0mph 0mph
Wind Gust: 0.0mph 0.0mph - -
WindCalm - - North
Pressure: 30.22 in 30.24 in 30.22 in -
Precipitation: 0.00 in      
Historical Graphs
 
 
Tabular Data for December 18, 2017
Time Temperature Dew Point Pressure Wind Wind Speed Wind Gust Humidity Rainfall Rate (Hourly) Conditions
00:03 66.0 °F 64.5 °F 30.24 in Calm     95% 0.00 in 0.0 W/m2
00:05 66.0 °F 64.5 °F 30.24 in Calm     95% 0.00 in 0.0 W/m2
00:10 65.7 °F 64.2 °F 30.24 in Calm     95% 0.00 in 0.0 W/m2
00:15 65.7 °F 64.5 °F 30.24 in Calm     96% 0.00 in 0.0 W/m2
00:16 65.7 °F 64.5 °F 30.24 in Calm     96% 0.00 in 0.0 W/m2
00:21 65.7 °F 64.2 °F 30.24 in Calm     95% 0.00 in 0.0 W/m2
00:23 65.7 °F 64.5 °F 30.24 in Calm     96% 0.00 in 0.0 W/m2
00:24 65.6 °F 64.4 °F 30.24 in Calm     96% 0.00 in 0.0 W/m2
00:29 65.6 °F 64.4 °F 30.24 in Calm     96% 0.00 in 0.0 W/m2
00:34 65.5 °F 64.3 °F 30.24 in Calm     96% 0.00 in 0.0 W/m2
00:35 65.3 °F 63.8 °F 30.23 in Calm     95% 0.00 in 0.0 W/m2
00:40 65.1 °F 63.9 °F 30.23 in Calm     96% 0.00 in 0.0 W/m2
00:45 65.2 °F 64.0 °F 30.23 in Calm     96% 0.00 in 0.0 W/m2
00:47 65.0 °F 63.5 °F 30.24 in Calm     95% 0.00 in 0.0 W/m2
00:52 64.7 °F 63.2 °F 30.24 in Calm     95% 0.00 in 0.0 W/m2
00:57 64.4 °F 63.2 °F 30.24 in Calm     96% 0.00 in 0.0 W/m2
01:00 64.1 °F 62.6 °F 30.24 in Calm     95% 0.00 in 0.0 W/m2
01:05 63.9 °F 62.7 °F 30.24 in Calm     96% 0.00 in 0.0 W/m2
01:06 63.9 °F 62.7 °F 30.24 in Calm     96% 0.00 in 0.0 W/m2
01:11 63.9 °F 62.7 °F 30.24 in Calm     96% 0.00 in 0.0 W/m2
01:13 63.9 °F 62.7 °F 30.24 in Calm     96% 0.00 in 0.0 W/m2
01:16 63.7 °F 62.5 °F 30.24 in Calm     96% 0.00 in 0.0 W/m2
01:21 63.5 °F 62.3 °F 30.24 in Calm     96% 0.00 in 0.0 W/m2
01:24 63.5 °F 62.3 °F 30.24 in Calm     96% 0.00 in 0.0 W/m2
01:26 63.5 °F 62.3 °F 30.24 in Calm     96% 0.00 in 0.0 W/m2
01:31 63.3 °F 62.1 °F 30.24 in Calm     96% 0.00 in 0.0 W/m2
01:35 63.0 °F 61.8 °F 30.24 in Calm     96% 0.00 in 0.0 W/m2
01:37 63.0 °F 61.8 °F 30.24 in Calm     96% 0.00 in 0.0 W/m2
01:40 63.1 °F 61.9 °F 30.23 in Calm     96% 0.00 in 0.0 W/m2
01:45 63.0 °F 61.8 °F 30.23 in Calm     96% 0.00 in 0.0 W/m2
01:46 63.0 °F 61.8 °F 30.23 in Calm     96% 0.00 in 0.0 W/m2
01:49 62.9 °F 61.7 °F 30.23 in Calm     96% 0.00 in 0.0 W/m2
01:52 62.8 °F 61.6 °F 30.23 in Calm     96% 0.00 in 0.0 W/m2
01:57 62.6 °F 61.4 °F 30.23 in Calm     96% 0.00 in 0.0 W/m2
01:58 62.6 °F 61.4 °F 30.23 in Calm     96% 0.00 in 0.0 W/m2
02:03 62.6 °F 61.4 °F 30.23 in Calm     96% 0.00 in 0.0 W/m2
02:04 62.5 °F 61.3 °F 30.23 in Calm     96% 0.00 in 0.0 W/m2
02:09 62.3 °F 61.1 °F 30.23 in Calm     96% 0.00 in 0.0 W/m2
02:14 62.0 °F 60.8 °F 30.23 in Calm     96% 0.00 in 0.0 W/m2
02:19 62.0 °F 60.8 °F 30.23 in Calm     96% 0.00 in 0.0 W/m2
02:23 61.9 °F 61.0 °F 30.23 in Calm     97% 0.00 in 0.0 W/m2
02:24 62.0 °F 61.1 °F 30.23 in Calm     97% 0.00 in 0.0 W/m2
02:29 61.8 °F 60.6 °F 30.23 in Calm     96% 0.00 in 0.0 W/m2
02:34 61.6 °F 60.4 °F 30.23 in Calm     96% 0.00 in 0.0 W/m2
02:36 61.6 °F 60.4 °F 30.23 in Calm     96% 0.00 in 0.0 W/m2
02:41 61.5 °F 60.6 °F 30.23 in Calm     97% 0.00 in 0.0 W/m2
02:46 61.7 °F 60.8 °F 30.23 in Calm     97% 0.00 in 0.0 W/m2
02:51 61.8 °F 60.9 °F 30.23 in Calm     97% 0.00 in 0.0 W/m2
02:52 61.7 °F 60.8 °F 30.23 in Calm     97% 0.00 in 0.0 W/m2
02:57 61.4 °F 60.2 °F 30.23 in Calm     96% 0.00 in 0.0 W/m2
02:58 61.3 °F 60.2 °F 30.23 in Calm     96% 0.00 in 0.0 W/m2
02:59 61.3 °F 60.2 °F 30.23 in Calm     96% 0.00 in 0.0 W/m2
03:04 61.2 °F 60.3 °F 30.23 in Calm     97% 0.00 in 0.0 W/m2
03:05 61.3 °F 60.4 °F 30.23 in Calm     97% 0.00 in 0.0 W/m2
03:10 61.2 °F 60.3 °F 30.23 in Calm     97% 0.00 in 0.0 W/m2
03:15 61.3 °F 60.4 °F 30.23 in Calm     97% 0.00 in 0.0 W/m2
03:18 61.2 °F 60.3 °F 30.23 in Calm     97% 0.00 in 0.0 W/m2
03:23 61.1 °F 60.2 °F 30.23 in Calm     97% 0.00 in 0.0 W/m2
03:28 61.0 °F 60.1 °F 30.23 in Calm     97% 0.00 in 0.0 W/m2
03:33 60.9 °F 60.0 °F 30.23 in Calm     97% 0.00 in 0.0 W/m2
03:36 60.8 °F 59.9 °F 30.23 in Calm     97% 0.00 in 0.0 W/m2
03:41 60.7 °F 59.8 °F 30.23 in Calm     97% 0.00 in 0.0 W/m2
03:46 60.9 °F 60.0 °F 30.23 in Calm     97% 0.00 in 0.0 W/m2
03:48 60.9 °F 60.0 °F 30.23 in Calm     97% 0.00 in 0.0 W/m2
03:52 61.2 °F 60.3 °F 30.23 in Calm     97% 0.00 in 0.0 W/m2
03:54 61.3 °F 60.7 °F 30.23 in Calm     98% 0.00 in 0.0 W/m2
03:59 61.3 °F 60.4 °F 30.23 in Calm     97% 0.00 in 0.0 W/m2
04:01 61.4 °F 60.5 °F 30.23 in Calm     97% 0.00 in 0.0 W/m2
04:06 61.4 °F 60.5 °F 30.22 in Calm     97% 0.00 in 0.0 W/m2
04:07 61.4 °F 60.5 °F 30.22 in Calm     97% 0.00 in 0.0 W/m2
04:12 61.2 °F 60.3 °F 30.22 in Calm     97% 0.00 in 0.0 W/m2
04:15 61.0 °F 60.1 °F 30.22 in Calm     97% 0.00 in 0.0 W/m2
04:18 61.0 °F 60.1 °F 30.22 in Calm     97% 0.00 in 0.0 W/m2
04:21 61.1 °F 60.2 °F 30.22 in Calm     97% 0.00 in 0.0 W/m2
04:26 61.3 °F 60.7 °F 30.22 in Calm     98% 0.00 in 0.0 W/m2
04:27 61.4 °F 60.8 °F 30.22 in Calm     98% 0.00 in 0.0 W/m2
04:32 61.7 °F 61.1 °F 30.22 in Calm     98% 0.00 in 0.0 W/m2
04:37 61.8 °F 61.2 °F 30.22 in Calm     98% 0.00 in 0.0 W/m2
04:38 61.8 °F 61.2 °F 30.22 in Calm     98% 0.00 in 0.0 W/m2
04:43 62.0 °F 61.4 °F 30.22 in Calm     98% 0.00 in 0.0 W/m2
04:48 62.0 °F 61.4 °F 30.22 in Calm     98% 0.00 in 0.0 W/m2
04:50 62.0 °F 61.4 °F 30.22 in Calm     98% 0.00 in 0.0 W/m2
04:51 62.1 °F 61.5 °F 30.22 in Calm     98% 0.00 in 0.0 W/m2
04:56 62.3 °F 61.7 °F 30.22 in Calm     98% 0.00 in 0.0 W/m2
04:58 62.3 °F 61.7 °F 30.22 in Calm     98% 0.00 in 0.0 W/m2
05:00 62.2 °F 61.6 °F 30.22 in Calm     98% 0.00 in 0.0 W/m2
05:05 62.2 °F 61.6 °F 30.22 in Calm     98% 0.00 in 0.0 W/m2
05:06 62.2 °F 61.6 °F 30.22 in Calm     98% 0.00 in 0.0 W/m2
05:11 62.0 °F 61.4 °F 30.22 in Calm     98% 0.00 in 0.0 W/m2
05:12 62.0 °F 61.4 °F 30.22 in Calm     98% 0.00 in 0.0 W/m2
05:18 62.0 °F 61.4 °F 30.22 in Calm     98% 0.00 in 0.0 W/m2
05:21 61.8 °F 61.2 °F 30.22 in Calm     98% 0.00 in 0.0 W/m2
05:24 61.8 °F 61.2 °F 30.22 in Calm     98% 0.00 in 0.0 W/m2
05:28 61.9 °F 61.3 °F 30.22 in Calm     98% 0.00 in 0.0 W/m2
05:32 62.0 °F 61.4 °F 30.22 in Calm     98% 0.00 in 0.0 W/m2
05:37 62.0 °F 61.4 °F 30.22 in Calm     98% 0.00 in 0.0 W/m2
05:39 62.2 °F 61.6 °F 30.22 in Calm     98% 0.00 in 0.0 W/m2
Juneau County Weather
Compliments of Weather Underground - 2 mb